Huvudsida
METAR-TAF:

METAR-TAF

Flygplatser :

Kemi-Torneå flygplats

Kemi, Finland

latitud: 65-47N, longitud: 024-35E, höjd: 15 m

Aktuellt väderrapport

Denna rapport gjordes för 24 minuter sedan, klockan 07:50 UTC
Vind 4 kt från sydväst
Temperatur 8°C
Fuktighet 87%
Tryck 1006 hPa
Sikt 10 km eller mer
Inga moln under 1 500 m eller inga cumulonimbus

METAR: EFKE 180750Z AUTO 22004KT CAVOK 08/06 Q1006

Tid: 11:14 (08:14 UTC)

Väderprognos

Denna rapport gjordes för 2 timmar och 41 minuter sedan, klockan 05:33 UTC
Prognos gäller från 18 kl. 06 UTC till 18 kl. 15 UTC
Vind 6 kt från väst/sydväst
Sikt 10 km eller mer
Inga moln under 1 500 m eller inga cumulonimbus

TAF: EFKE 180533Z 1806/1815 25006KT CAVOK

Aktuella väderrapporter och prognoser från 4000 flygplatser (METAR- och TAF-rapporter).

De tillgängliga stationerna syns som gula och röda prickar på kartan.

För musen över prickarna för att se namnen på stationerna.

Klicka sedan för att få väderrapporter och prognoser.

För att ändra kartan: Klicka på de gröna knapparna med ett svart kors på för att zooma in; den gröna knappen med ett streck på för att zooma ut; eller på de gröna pilarna för angränsande kartor.


METAR-TAF: